sensor_id;sensor_type;location;lat;lon;timestamp;temperature;humidity
22319;DHT22;11327;52.334;9.506;2022-09-28T00:01:19;8.50;99.90
22319;DHT22;11327;52.334;9.506;2022-09-28T00:04:40;8.50;99.90
22319;DHT22;11327;52.334;9.506;2022-09-28T00:08:01;8.40;99.90
22319;DHT22;11327;52.334;9.506;2022-09-28T00:11:28;8.40;99.90
22319;DHT22;11327;52.334;9.506;2022-09-28T00:14:47;8.40;99.90
22319;DHT22;11327;52.334;9.506;2022-09-28T00:18:08;8.30;99.90
22319;DHT22;11327;52.334;9.506;2022-09-28T00:21:32;8.30;99.90
22319;DHT22;11327;52.334;9.506;2022-09-28T00:24:53;8.30;99.90
22319;DHT22;11327;52.334;9.506;2022-09-28T00:28:14;8.20;99.90
22319;DHT22;11327;52.334;9.506;2022-09-28T00:31:35;8.20;99.90
22319;DHT22;11327;52.334;9.506;2022-09-28T00:34:56;8.20;99.90
22319;DHT22;11327;52.334;9.506;2022-09-28T00:38:17;8.30;99.90
22319;DHT22;11327;52.334;9.506;2022-09-28T00:41:39;8.30;99.90
22319;DHT22;11327;52.334;9.506;2022-09-28T00:45:03;8.40;99.90
22319;DHT22;11327;52.334;9.506;2022-09-28T00:48:26;8.40;99.90
22319;DHT22;11327;52.334;9.506;2022-09-28T00:51:49;8.50;99.90
22319;DHT22;11327;52.334;9.506;2022-09-28T00:55:13;8.50;99.90
22319;DHT22;11327;52.334;9.506;2022-09-28T00:58:45;8.50;99.90
22319;DHT22;11327;52.334;9.506;2022-09-28T01:02:06;8.50;99.90
22319;DHT22;11327;52.334;9.506;2022-09-28T01:05:29;8.50;99.90
22319;DHT22;11327;52.334;9.506;2022-09-28T01:08:57;8.60;99.90
22319;DHT22;11327;52.334;9.506;2022-09-28T01:12:15;8.60;99.90
22319;DHT22;11327;52.334;9.506;2022-09-28T01:15:41;8.60;99.90
22319;DHT22;11327;52.334;9.506;2022-09-28T01:22:48;8.60;99.90
22319;DHT22;11327;52.334;9.506;2022-09-28T01:29:53;8.70;99.90
22319;DHT22;11327;52.334;9.506;2022-09-28T01:33:27;8.70;99.90
22319;DHT22;11327;52.334;9.506;2022-09-28T01:36:52;8.70;99.90
22319;DHT22;11327;52.334;9.506;2022-09-28T01:40:14;8.70;99.90
22319;DHT22;11327;52.334;9.506;2022-09-28T01:43:39;8.70;99.90
22319;DHT22;11327;52.334;9.506;2022-09-28T01:47:01;8.70;99.90
22319;DHT22;11327;52.334;9.506;2022-09-28T01:50:26;8.80;99.90
22319;DHT22;11327;52.334;9.506;2022-09-28T01:53:50;8.70;99.90
22319;DHT22;11327;52.334;9.506;2022-09-28T01:57:19;8.80;99.90
22319;DHT22;11327;52.334;9.506;2022-09-28T02:00:44;8.80;99.90
22319;DHT22;11327;52.334;9.506;2022-09-28T02:04:13;8.80;99.90
22319;DHT22;11327;52.334;9.506;2022-09-28T02:07:44;8.80;99.90
22319;DHT22;11327;52.334;9.506;2022-09-28T02:11:14;8.80;99.90
22319;DHT22;11327;52.334;9.506;2022-09-28T02:14:37;8.80;99.90
22319;DHT22;11327;52.334;9.506;2022-09-28T02:18:00;8.80;99.90
22319;DHT22;11327;52.334;9.506;2022-09-28T02:21:30;8.80;99.90
22319;DHT22;11327;52.334;9.506;2022-09-28T02:24:58;8.80;99.90
22319;DHT22;11327;52.334;9.506;2022-09-28T02:28:16;8.80;99.90
22319;DHT22;11327;52.334;9.506;2022-09-28T02:31:37;8.80;99.90
22319;DHT22;11327;52.334;9.506;2022-09-28T02:34:58;8.80;99.90
22319;DHT22;11327;52.334;9.506;2022-09-28T02:38:19;8.80;99.90
22319;DHT22;11327;52.334;9.506;2022-09-28T02:42:08;8.80;99.90
22319;DHT22;11327;52.334;9.506;2022-09-28T02:57:03;8.80;99.90
22319;DHT22;11327;52.334;9.506;2022-09-28T03:00:21;8.80;99.90
22319;DHT22;11327;52.334;9.506;2022-09-28T03:03:49;8.80;99.90
22319;DHT22;11327;52.334;9.506;2022-09-28T03:10:56;8.80;99.90
22319;DHT22;11327;52.334;9.506;2022-09-28T03:14:18;8.80;99.90
22319;DHT22;11327;52.334;9.506;2022-09-28T03:17:39;8.80;99.90
22319;DHT22;11327;52.334;9.506;2022-09-28T03:21:00;8.80;99.90
22319;DHT22;11327;52.334;9.506;2022-09-28T03:24:23;8.80;99.90
22319;DHT22;11327;52.334;9.506;2022-09-28T03:27:44;8.80;99.90
22319;DHT22;11327;52.334;9.506;2022-09-28T03:31:05;8.80;99.90
22319;DHT22;11327;52.334;9.506;2022-09-28T03:34:26;8.80;99.90
22319;DHT22;11327;52.334;9.506;2022-09-28T03:37:47;8.80;99.90
22319;DHT22;11327;52.334;9.506;2022-09-28T03:41:08;8.70;99.90
22319;DHT22;11327;52.334;9.506;2022-09-28T03:44:29;8.70;99.90
22319;DHT22;11327;52.334;9.506;2022-09-28T03:47:50;8.70;99.90
22319;DHT22;11327;52.334;9.506;2022-09-28T03:51:11;8.70;99.90
22319;DHT22;11327;52.334;9.506;2022-09-28T03:54:34;8.70;99.90
22319;DHT22;11327;52.334;9.506;2022-09-28T03:57:55;8.70;99.90
22319;DHT22;11327;52.334;9.506;2022-09-28T04:01:17;8.70;99.90
22319;DHT22;11327;52.334;9.506;2022-09-28T04:04:38;8.70;99.90
22319;DHT22;11327;52.334;9.506;2022-09-28T04:07:59;8.70;99.90
22319;DHT22;11327;52.334;9.506;2022-09-28T04:11:20;8.70;99.90
22319;DHT22;11327;52.334;9.506;2022-09-28T04:14:43;8.70;99.90
22319;DHT22;11327;52.334;9.506;2022-09-28T04:18:09;8.70;99.90
22319;DHT22;11327;52.334;9.506;2022-09-28T04:21:30;8.60;99.90
22319;DHT22;11327;52.334;9.506;2022-09-28T04:24:53;8.70;99.90
22319;DHT22;11327;52.334;9.506;2022-09-28T04:28:14;8.70;99.90
22319;DHT22;11327;52.334;9.506;2022-09-28T04:31:54;8.70;99.90
22319;DHT22;11327;52.334;9.506;2022-09-28T04:35:15;8.70;99.90
22319;DHT22;11327;52.334;9.506;2022-09-28T04:38:37;8.70;99.90
22319;DHT22;11327;52.334;9.506;2022-09-28T04:41:58;8.70;99.90
22319;DHT22;11327;52.334;9.506;2022-09-28T04:45:19;8.70;99.90
22319;DHT22;11327;52.334;9.506;2022-09-28T04:48:40;8.70;99.90
22319;DHT22;11327;52.334;9.506;2022-09-28T04:52:01;8.70;99.90
22319;DHT22;11327;52.334;9.506;2022-09-28T04:55:23;8.70;99.90
22319;DHT22;11327;52.334;9.506;2022-09-28T04:58:46;8.70;99.90
22319;DHT22;11327;52.334;9.506;2022-09-28T05:02:07;8.70;99.90
22319;DHT22;11327;52.334;9.506;2022-09-28T05:05:28;8.70;99.90
22319;DHT22;11327;52.334;9.506;2022-09-28T05:08:49;8.70;99.90
22319;DHT22;11327;52.334;9.506;2022-09-28T05:12:16;8.70;99.90
22319;DHT22;11327;52.334;9.506;2022-09-28T05:15:39;8.70;99.90
22319;DHT22;11327;52.334;9.506;2022-09-28T05:19:00;8.70;99.90
22319;DHT22;11327;52.334;9.506;2022-09-28T05:22:21;8.80;99.90
22319;DHT22;11327;52.334;9.506;2022-09-28T05:26:01;8.70;99.90
22319;DHT22;11327;52.334;9.506;2022-09-28T05:29:08;8.70;99.90
22319;DHT22;11327;52.334;9.506;2022-09-28T05:32:29;8.70;99.90
22319;DHT22;11327;52.334;9.506;2022-09-28T05:35:51;8.70;99.90
22319;DHT22;11327;52.334;9.506;2022-09-28T05:39:11;8.70;99.90
22319;DHT22;11327;52.334;9.506;2022-09-28T05:42:32;8.70;99.90
22319;DHT22;11327;52.334;9.506;2022-09-28T05:45:53;8.70;99.90
22319;DHT22;11327;52.334;9.506;2022-09-28T05:49:14;8.60;99.90
22319;DHT22;11327;52.334;9.506;2022-09-28T05:52:39;8.70;99.90
22319;DHT22;11327;52.334;9.506;2022-09-28T05:56:00;8.70;99.90
22319;DHT22;11327;52.334;9.506;2022-09-28T05:59:21;8.70;99.90
22319;DHT22;11327;52.334;9.506;2022-09-28T06:02:42;8.70;99.90
22319;DHT22;11327;52.334;9.506;2022-09-28T06:06:06;8.70;99.90
22319;DHT22;11327;52.334;9.506;2022-09-28T06:09:27;8.70;99.90
22319;DHT22;11327;52.334;9.506;2022-09-28T06:12:53;8.70;99.90
22319;DHT22;11327;52.334;9.506;2022-09-28T06:16:15;8.70;99.90
22319;DHT22;11327;52.334;9.506;2022-09-28T06:19:37;8.70;99.90
22319;DHT22;11327;52.334;9.506;2022-09-28T06:22:59;8.70;99.90
22319;DHT22;11327;52.334;9.506;2022-09-28T06:26:20;8.70;99.90
22319;DHT22;11327;52.334;9.506;2022-09-28T06:29:41;8.70;99.90
22319;DHT22;11327;52.334;9.506;2022-09-28T06:33:02;8.80;99.90
22319;DHT22;11327;52.334;9.506;2022-09-28T06:36:23;8.80;99.90
22319;DHT22;11327;52.334;9.506;2022-09-28T06:39:44;8.80;99.90
22319;DHT22;11327;52.334;9.506;2022-09-28T06:43:08;8.80;99.90
22319;DHT22;11327;52.334;9.506;2022-09-28T06:46:34;8.80;99.90
22319;DHT22;11327;52.334;9.506;2022-09-28T06:49:57;8.80;99.90
22319;DHT22;11327;52.334;9.506;2022-09-28T06:53:18;8.80;99.90
22319;DHT22;11327;52.334;9.506;2022-09-28T06:56:39;8.70;99.90
22319;DHT22;11327;52.334;9.506;2022-09-28T07:00:00;8.70;99.90
22319;DHT22;11327;52.334;9.506;2022-09-28T07:03:21;8.80;99.90
22319;DHT22;11327;52.334;9.506;2022-09-28T07:06:46;8.70;99.90
22319;DHT22;11327;52.334;9.506;2022-09-28T07:10:11;8.70;99.90
22319;DHT22;11327;52.334;9.506;2022-09-28T07:13:32;8.80;99.90
22319;DHT22;11327;52.334;9.506;2022-09-28T07:16:53;8.80;99.90
22319;DHT22;11327;52.334;9.506;2022-09-28T07:20:15;8.80;99.90
22319;DHT22;11327;52.334;9.506;2022-09-28T07:23:36;8.90;99.90
22319;DHT22;11327;52.334;9.506;2022-09-28T07:26:57;8.80;99.90
22319;DHT22;11327;52.334;9.506;2022-09-28T07:30:19;8.80;99.90
22319;DHT22;11327;52.334;9.506;2022-09-28T07:33:40;8.80;99.90
22319;DHT22;11327;52.334;9.506;2022-09-28T07:37:01;8.80;99.90
22319;DHT22;11327;52.334;9.506;2022-09-28T07:40:22;8.70;99.90
22319;DHT22;11327;52.334;9.506;2022-09-28T07:44:02;8.70;99.90
22319;DHT22;11327;52.334;9.506;2022-09-28T07:47:26;8.70;99.90
22319;DHT22;11327;52.334;9.506;2022-09-28T07:50:54;8.70;99.90
22319;DHT22;11327;52.334;9.506;2022-09-28T07:54:11;8.80;99.90
22319;DHT22;11327;52.334;9.506;2022-09-28T07:57:32;8.80;99.90
22319;DHT22;11327;52.334;9.506;2022-09-28T08:00:54;8.80;99.90
22319;DHT22;11327;52.334;9.506;2022-09-28T08:04:15;8.90;99.90
22319;DHT22;11327;52.334;9.506;2022-09-28T08:07:36;8.90;99.90
22319;DHT22;11327;52.334;9.506;2022-09-28T08:10:58;8.80;99.90
22319;DHT22;11327;52.334;9.506;2022-09-28T08:14:19;8.80;99.90
22319;DHT22;11327;52.334;9.506;2022-09-28T08:17:45;8.80;99.90
22319;DHT22;11327;52.334;9.506;2022-09-28T08:21:05;8.80;99.90
22319;DHT22;11327;52.334;9.506;2022-09-28T08:24:48;8.80;99.90
22319;DHT22;11327;52.334;9.506;2022-09-28T08:28:09;8.80;99.90
22319;DHT22;11327;52.334;9.506;2022-09-28T08:31:30;8.90;99.90
22319;DHT22;11327;52.334;9.506;2022-09-28T08:34:51;8.90;99.90
22319;DHT22;11327;52.334;9.506;2022-09-28T08:38:14;9.10;99.90
22319;DHT22;11327;52.334;9.506;2022-09-28T08:45:11;9.10;99.90
22319;DHT22;11327;52.334;9.506;2022-09-28T08:48:37;9.10;99.90
22319;DHT22;11327;52.334;9.506;2022-09-28T08:52:09;9.10;99.90
22319;DHT22;11327;52.334;9.506;2022-09-28T08:55:32;9.00;99.90
22319;DHT22;11327;52.334;9.506;2022-09-28T08:59:03;9.00;99.90
22319;DHT22;11327;52.334;9.506;2022-09-28T09:02:30;9.00;99.90
22319;DHT22;11327;52.334;9.506;2022-09-28T09:10:07;9.00;99.90
22319;DHT22;11327;52.334;9.506;2022-09-28T09:20:55;9.00;99.90
22319;DHT22;11327;52.334;9.506;2022-09-28T09:31:49;9.00;99.90
22319;DHT22;11327;52.334;9.506;2022-09-28T09:38:55;9.10;99.90
22319;DHT22;11327;52.334;9.506;2022-09-28T09:42:48;9.10;99.90
22319;DHT22;11327;52.334;9.506;2022-09-28T09:46:14;9.10;99.90
22319;DHT22;11327;52.334;9.506;2022-09-28T09:53:26;9.30;99.90
22319;DHT22;11327;52.334;9.506;2022-09-28T10:00:32;9.30;99.90
22319;DHT22;11327;52.334;9.506;2022-09-28T10:03:55;9.30;99.90
22319;DHT22;11327;52.334;9.506;2022-09-28T10:11:12;9.50;99.90
22319;DHT22;11327;52.334;9.506;2022-09-28T10:14:34;9.90;99.90
22319;DHT22;11327;52.334;9.506;2022-09-28T10:18:04;10.30;99.90
22319;DHT22;11327;52.334;9.506;2022-09-28T10:21:29;10.50;99.90
22319;DHT22;11327;52.334;9.506;2022-09-28T10:24:53;10.70;99.90
22319;DHT22;11327;52.334;9.506;2022-09-28T10:28:21;10.90;99.90
22319;DHT22;11327;52.334;9.506;2022-09-28T10:31:44;10.80;99.90
22319;DHT22;11327;52.334;9.506;2022-09-28T10:35:23;10.90;99.90
22319;DHT22;11327;52.334;9.506;2022-09-28T10:38:46;10.50;99.90
22319;DHT22;11327;52.334;9.506;2022-09-28T10:42:11;10.40;99.90
22319;DHT22;11327;52.334;9.506;2022-09-28T10:45:35;10.30;99.90
22319;DHT22;11327;52.334;9.506;2022-09-28T10:49:12;10.40;99.90
22319;DHT22;11327;52.334;9.506;2022-09-28T10:52:39;10.50;99.90
22319;DHT22;11327;52.334;9.506;2022-09-28T10:56:04;10.70;99.90
22319;DHT22;11327;52.334;9.506;2022-09-28T11:02:52;11.10;99.90
22319;DHT22;11327;52.334;9.506;2022-09-28T11:06:14;11.10;99.90
22319;DHT22;11327;52.334;9.506;2022-09-28T11:09:41;11.00;99.90
22319;DHT22;11327;52.334;9.506;2022-09-28T11:13:02;11.00;99.90
22319;DHT22;11327;52.334;9.506;2022-09-28T11:16:30;10.90;99.90
22319;DHT22;11327;52.334;9.506;2022-09-28T11:19:48;10.80;99.90
22319;DHT22;11327;52.334;9.506;2022-09-28T11:23:29;10.90;99.90
22319;DHT22;11327;52.334;9.506;2022-09-28T11:26:45;11.00;99.90
22319;DHT22;11327;52.334;9.506;2022-09-28T11:30:51;11.00;99.90
22319;DHT22;11327;52.334;9.506;2022-09-28T11:33:37;11.10;99.90
22319;DHT22;11327;52.334;9.506;2022-09-28T11:40:46;11.00;99.90
22319;DHT22;11327;52.334;9.506;2022-09-28T11:51:23;10.80;99.90
22319;DHT22;11327;52.334;9.506;2022-09-28T11:54:47;10.80;99.90
22319;DHT22;11327;52.334;9.506;2022-09-28T12:02:19;10.60;99.90
22319;DHT22;11327;52.334;9.506;2022-09-28T12:05:58;10.50;99.90
22319;DHT22;11327;52.334;9.506;2022-09-28T12:09:29;10.50;99.90
22319;DHT22;11327;52.334;9.506;2022-09-28T12:12:49;10.60;99.90
22319;DHT22;11327;52.334;9.506;2022-09-28T12:16:20;10.60;99.90
22319;DHT22;11327;52.334;9.506;2022-09-28T12:19:47;10.70;99.90
22319;DHT22;11327;52.334;9.506;2022-09-28T12:23:14;10.80;99.90
22319;DHT22;11327;52.334;9.506;2022-09-28T12:30:36;10.90;99.90
22319;DHT22;11327;52.334;9.506;2022-09-28T12:34:00;11.00;99.90
22319;DHT22;11327;52.334;9.506;2022-09-28T12:37:46;11.10;99.90
22319;DHT22;11327;52.334;9.506;2022-09-28T12:44:43;11.20;99.90
22319;DHT22;11327;52.334;9.506;2022-09-28T12:51:55;11.20;99.90
22319;DHT22;11327;52.334;9.506;2022-09-28T12:55:16;11.20;99.90
22319;DHT22;11327;52.334;9.506;2022-09-28T13:09:58;11.10;99.90
22319;DHT22;11327;52.334;9.506;2022-09-28T13:21:12;11.00;99.90
22319;DHT22;11327;52.334;9.506;2022-09-28T13:24:34;11.00;99.90
22319;DHT22;11327;52.334;9.506;2022-09-28T13:28:02;11.00;99.90
22319;DHT22;11327;52.334;9.506;2022-09-28T13:31:24;11.00;99.90
22319;DHT22;11327;52.334;9.506;2022-09-28T13:34:49;11.00;99.90
22319;DHT22;11327;52.334;9.506;2022-09-28T13:41:46;11.00;99.90
22319;DHT22;11327;52.334;9.506;2022-09-28T13:49:02;11.00;99.90
22319;DHT22;11327;52.334;9.506;2022-09-28T13:59:31;10.90;99.90
22319;DHT22;11327;52.334;9.506;2022-09-28T14:06:31;11.00;99.90
22319;DHT22;11327;52.334;9.506;2022-09-28T14:21:05;11.10;99.90
22319;DHT22;11327;52.334;9.506;2022-09-28T14:28:20;11.40;99.90
22319;DHT22;11327;52.334;9.506;2022-09-28T14:31:40;11.50;99.90
22319;DHT22;11327;52.334;9.506;2022-09-28T14:38:48;11.90;99.90
22319;DHT22;11327;52.334;9.506;2022-09-28T14:42:28;12.00;99.90
22319;DHT22;11327;52.334;9.506;2022-09-28T14:49:43;11.80;99.90
22319;DHT22;11327;52.334;9.506;2022-09-28T14:53:10;11.70;99.90
22319;DHT22;11327;52.334;9.506;2022-09-28T14:56:44;11.60;99.90
22319;DHT22;11327;52.334;9.506;2022-09-28T15:00:13;11.60;99.90
22319;DHT22;11327;52.334;9.506;2022-09-28T15:03:32;11.50;99.90
22319;DHT22;11327;52.334;9.506;2022-09-28T15:06:54;11.40;99.90
22319;DHT22;11327;52.334;9.506;2022-09-28T15:13:45;11.40;99.90
22319;DHT22;11327;52.334;9.506;2022-09-28T15:17:08;11.30;99.90
22319;DHT22;11327;52.334;9.506;2022-09-28T15:20:39;11.30;99.90
22319;DHT22;11327;52.334;9.506;2022-09-28T15:24:01;11.30;99.90
22319;DHT22;11327;52.334;9.506;2022-09-28T15:27:22;11.30;99.90
22319;DHT22;11327;52.334;9.506;2022-09-28T15:30:43;11.40;99.90
22319;DHT22;11327;52.334;9.506;2022-09-28T15:34:10;11.30;99.90
22319;DHT22;11327;52.334;9.506;2022-09-28T15:37:48;11.40;99.90
22319;DHT22;11327;52.334;9.506;2022-09-28T15:41:11;11.30;99.90
22319;DHT22;11327;52.334;9.506;2022-09-28T15:44:39;11.30;99.90
22319;DHT22;11327;52.334;9.506;2022-09-28T15:48:19;11.20;99.90
22319;DHT22;11327;52.334;9.506;2022-09-28T15:51:48;11.10;99.90
22319;DHT22;11327;52.334;9.506;2022-09-28T15:55:22;11.00;99.90
22319;DHT22;11327;52.334;9.506;2022-09-28T15:58:45;11.00;99.90
22319;DHT22;11327;52.334;9.506;2022-09-28T16:02:16;10.90;99.90
22319;DHT22;11327;52.334;9.506;2022-09-28T16:09:31;10.80;99.90
22319;DHT22;11327;52.334;9.506;2022-09-28T16:12:55;10.70;99.90
22319;DHT22;11327;52.334;9.506;2022-09-28T16:16:16;10.70;99.90
22319;DHT22;11327;52.334;9.506;2022-09-28T16:19:37;10.70;99.90
22319;DHT22;11327;52.334;9.506;2022-09-28T16:23:17;10.60;99.90
22319;DHT22;11327;52.334;9.506;2022-09-28T16:26:33;10.60;99.90
22319;DHT22;11327;52.334;9.506;2022-09-28T16:37:24;10.40;99.90
22319;DHT22;11327;52.334;9.506;2022-09-28T16:40:32;10.40;99.90
22319;DHT22;11327;52.334;9.506;2022-09-28T16:43:56;10.20;99.90
22319;DHT22;11327;52.334;9.506;2022-09-28T16:47:22;10.20;99.90
22319;DHT22;11327;52.334;9.506;2022-09-28T16:50:43;10.20;99.90
22319;DHT22;11327;52.334;9.506;2022-09-28T16:54:19;10.10;99.90
22319;DHT22;11327;52.334;9.506;2022-09-28T16:57:58;10.00;99.90
22319;DHT22;11327;52.334;9.506;2022-09-28T17:01:20;9.90;99.90
22319;DHT22;11327;52.334;9.506;2022-09-28T17:04:42;9.80;99.90
22319;DHT22;11327;52.334;9.506;2022-09-28T17:08:03;9.80;99.90
22319;DHT22;11327;52.334;9.506;2022-09-28T17:11:24;9.70;99.90
22319;DHT22;11327;52.334;9.506;2022-09-28T17:14:45;9.60;99.90
22319;DHT22;11327;52.334;9.506;2022-09-28T17:18:08;9.60;99.90
22319;DHT22;11327;52.334;9.506;2022-09-28T17:21:30;9.50;99.90
22319;DHT22;11327;52.334;9.506;2022-09-28T17:24:51;9.50;99.90
22319;DHT22;11327;52.334;9.506;2022-09-28T17:28:18;9.40;99.90
22319;DHT22;11327;52.334;9.506;2022-09-28T17:31:43;9.30;99.90
22319;DHT22;11327;52.334;9.506;2022-09-28T17:35:05;9.30;99.90
22319;DHT22;11327;52.334;9.506;2022-09-28T17:38:28;9.20;99.90
22319;DHT22;11327;52.334;9.506;2022-09-28T17:41:49;9.20;99.90
22319;DHT22;11327;52.334;9.506;2022-09-28T17:45:10;9.10;99.90
22319;DHT22;11327;52.334;9.506;2022-09-28T17:48:32;9.10;99.90
22319;DHT22;11327;52.334;9.506;2022-09-28T17:51:54;9.00;99.90
22319;DHT22;11327;52.334;9.506;2022-09-28T17:55:15;9.00;99.90
22319;DHT22;11327;52.334;9.506;2022-09-28T17:58:37;9.00;99.90
22319;DHT22;11327;52.334;9.506;2022-09-28T18:01:58;8.90;99.90
22319;DHT22;11327;52.334;9.506;2022-09-28T18:05:20;8.80;99.90
22319;DHT22;11327;52.334;9.506;2022-09-28T18:08:41;8.80;99.90
22319;DHT22;11327;52.334;9.506;2022-09-28T18:12:03;8.80;99.90
22319;DHT22;11327;52.334;9.506;2022-09-28T18:15:25;8.80;99.90
22319;DHT22;11327;52.334;9.506;2022-09-28T18:18:46;8.80;99.90
22319;DHT22;11327;52.334;9.506;2022-09-28T18:22:07;8.80;99.90
22319;DHT22;11327;52.334;9.506;2022-09-28T18:25:28;8.80;99.90
22319;DHT22;11327;52.334;9.506;2022-09-28T18:28:54;8.80;99.90
22319;DHT22;11327;52.334;9.506;2022-09-28T18:32:15;8.80;99.90
22319;DHT22;11327;52.334;9.506;2022-09-28T18:35:36;8.90;99.90
22319;DHT22;11327;52.334;9.506;2022-09-28T18:38:58;8.90;99.90
22319;DHT22;11327;52.334;9.506;2022-09-28T18:42:20;8.90;99.90
22319;DHT22;11327;52.334;9.506;2022-09-28T18:45:41;8.90;99.90
22319;DHT22;11327;52.334;9.506;2022-09-28T18:49:03;9.00;99.90
22319;DHT22;11327;52.334;9.506;2022-09-28T18:52:25;9.00;99.90
22319;DHT22;11327;52.334;9.506;2022-09-28T18:55:46;9.00;99.90
22319;DHT22;11327;52.334;9.506;2022-09-28T18:59:08;9.00;99.90
22319;DHT22;11327;52.334;9.506;2022-09-28T19:02:29;9.00;99.90
22319;DHT22;11327;52.334;9.506;2022-09-28T19:05:51;9.00;99.90
22319;DHT22;11327;52.334;9.506;2022-09-28T19:09:12;9.00;99.90
22319;DHT22;11327;52.334;9.506;2022-09-28T19:12:33;9.00;99.90
22319;DHT22;11327;52.334;9.506;2022-09-28T19:15:54;9.00;99.90
22319;DHT22;11327;52.334;9.506;2022-09-28T19:19:17;9.00;99.90
22319;DHT22;11327;52.334;9.506;2022-09-28T19:22:38;9.00;99.90
22319;DHT22;11327;52.334;9.506;2022-09-28T19:26:10;8.90;99.90
22319;DHT22;11327;52.334;9.506;2022-09-28T19:29:27;8.90;99.90
22319;DHT22;11327;52.334;9.506;2022-09-28T19:32:48;8.90;99.90
22319;DHT22;11327;52.334;9.506;2022-09-28T19:36:12;8.90;99.90
22319;DHT22;11327;52.334;9.506;2022-09-28T19:39:33;8.90;99.90
22319;DHT22;11327;52.334;9.506;2022-09-28T19:42:54;8.90;99.90
22319;DHT22;11327;52.334;9.506;2022-09-28T19:46:16;8.90;99.90
22319;DHT22;11327;52.334;9.506;2022-09-28T19:49:38;8.90;99.90
22319;DHT22;11327;52.334;9.506;2022-09-28T19:52:59;8.90;99.90
22319;DHT22;11327;52.334;9.506;2022-09-28T19:56:22;8.90;99.90
22319;DHT22;11327;52.334;9.506;2022-09-28T19:59:43;8.90;99.90
22319;DHT22;11327;52.334;9.506;2022-09-28T20:03:04;8.90;99.90
22319;DHT22;11327;52.334;9.506;2022-09-28T20:06:26;8.80;99.90
22319;DHT22;11327;52.334;9.506;2022-09-28T20:09:47;8.80;99.90
22319;DHT22;11327;52.334;9.506;2022-09-28T20:13:08;8.90;99.90
22319;DHT22;11327;52.334;9.506;2022-09-28T20:16:29;8.80;99.90
22319;DHT22;11327;52.334;9.506;2022-09-28T20:19:50;8.80;99.90
22319;DHT22;11327;52.334;9.506;2022-09-28T20:23:11;8.80;99.90
22319;DHT22;11327;52.334;9.506;2022-09-28T20:26:32;8.80;99.90
22319;DHT22;11327;52.334;9.506;2022-09-28T20:29:55;8.70;99.90
22319;DHT22;11327;52.334;9.506;2022-09-28T20:36:39;8.70;99.90
22319;DHT22;11327;52.334;9.506;2022-09-28T20:40:01;8.70;99.90
22319;DHT22;11327;52.334;9.506;2022-09-28T20:43:22;8.70;99.90
22319;DHT22;11327;52.334;9.506;2022-09-28T20:46:44;8.60;99.90
22319;DHT22;11327;52.334;9.506;2022-09-28T20:50:07;8.60;99.90
22319;DHT22;11327;52.334;9.506;2022-09-28T20:53:29;8.60;99.90
22319;DHT22;11327;52.334;9.506;2022-09-28T20:56:50;8.50;99.90
22319;DHT22;11327;52.334;9.506;2022-09-28T21:00:12;8.50;99.90
22319;DHT22;11327;52.334;9.506;2022-09-28T21:03:34;8.50;99.90
22319;DHT22;11327;52.334;9.506;2022-09-28T21:06:55;8.50;99.90
22319;DHT22;11327;52.334;9.506;2022-09-28T21:10:16;8.50;99.90
22319;DHT22;11327;52.334;9.506;2022-09-28T21:13:37;8.50;99.90
22319;DHT22;11327;52.334;9.506;2022-09-28T21:17:00;8.50;99.90
22319;DHT22;11327;52.334;9.506;2022-09-28T21:20:21;8.50;99.90
22319;DHT22;11327;52.334;9.506;2022-09-28T21:23:42;8.50;99.90
22319;DHT22;11327;52.334;9.506;2022-09-28T21:27:06;8.50;99.90
22319;DHT22;11327;52.334;9.506;2022-09-28T21:30:27;8.50;99.90
22319;DHT22;11327;52.334;9.506;2022-09-28T21:33:49;8.50;99.90
22319;DHT22;11327;52.334;9.506;2022-09-28T21:37:10;8.50;99.90
22319;DHT22;11327;52.334;9.506;2022-09-28T21:40:31;8.50;99.90
22319;DHT22;11327;52.334;9.506;2022-09-28T21:43:52;8.40;99.90
22319;DHT22;11327;52.334;9.506;2022-09-28T21:47:13;8.50;99.90
22319;DHT22;11327;52.334;9.506;2022-09-28T21:50:34;8.60;99.90
22319;DHT22;11327;52.334;9.506;2022-09-28T21:53:55;8.60;99.90
22319;DHT22;11327;52.334;9.506;2022-09-28T21:57:16;8.60;99.90
22319;DHT22;11327;52.334;9.506;2022-09-28T22:00:38;8.60;99.90
22319;DHT22;11327;52.334;9.506;2022-09-28T22:03:59;8.60;99.90
22319;DHT22;11327;52.334;9.506;2022-09-28T22:07:20;8.70;99.90
22319;DHT22;11327;52.334;9.506;2022-09-28T22:10:41;8.70;99.90
22319;DHT22;11327;52.334;9.506;2022-09-28T22:14:02;8.70;99.90
22319;DHT22;11327;52.334;9.506;2022-09-28T22:17:23;8.70;99.90
22319;DHT22;11327;52.334;9.506;2022-09-28T22:20:44;8.70;99.90
22319;DHT22;11327;52.334;9.506;2022-09-28T22:24:06;8.70;99.90
22319;DHT22;11327;52.334;9.506;2022-09-28T22:27:28;8.70;99.90
22319;DHT22;11327;52.334;9.506;2022-09-28T22:30:51;8.70;99.90
22319;DHT22;11327;52.334;9.506;2022-09-28T22:34:12;8.60;99.90
22319;DHT22;11327;52.334;9.506;2022-09-28T22:37:33;8.60;99.90
22319;DHT22;11327;52.334;9.506;2022-09-28T22:40:55;8.60;99.90
22319;DHT22;11327;52.334;9.506;2022-09-28T22:44:18;8.60;99.90
22319;DHT22;11327;52.334;9.506;2022-09-28T22:47:39;8.60;99.90
22319;DHT22;11327;52.334;9.506;2022-09-28T22:51:01;8.60;99.90
22319;DHT22;11327;52.334;9.506;2022-09-28T22:54:22;8.50;99.90
22319;DHT22;11327;52.334;9.506;2022-09-28T22:57:43;8.50;99.90
22319;DHT22;11327;52.334;9.506;2022-09-28T23:01:12;8.40;99.90
22319;DHT22;11327;52.334;9.506;2022-09-28T23:04:33;8.30;99.90
22319;DHT22;11327;52.334;9.506;2022-09-28T23:07:54;8.30;99.90
22319;DHT22;11327;52.334;9.506;2022-09-28T23:11:15;8.20;99.90
22319;DHT22;11327;52.334;9.506;2022-09-28T23:14:36;8.20;99.90
22319;DHT22;11327;52.334;9.506;2022-09-28T23:17:57;8.20;99.90
22319;DHT22;11327;52.334;9.506;2022-09-28T23:21:21;8.10;99.90
22319;DHT22;11327;52.334;9.506;2022-09-28T23:24:42;8.00;99.90
22319;DHT22;11327;52.334;9.506;2022-09-28T23:28:03;8.00;99.90
22319;DHT22;11327;52.334;9.506;2022-09-28T23:31:27;8.00;99.90
22319;DHT22;11327;52.334;9.506;2022-09-28T23:34:48;7.90;99.90
22319;DHT22;11327;52.334;9.506;2022-09-28T23:38:10;7.80;99.90
22319;DHT22;11327;52.334;9.506;2022-09-28T23:41:33;7.80;99.90
22319;DHT22;11327;52.334;9.506;2022-09-28T23:44:54;7.70;99.90
22319;DHT22;11327;52.334;9.506;2022-09-28T23:48:15;7.70;99.90
22319;DHT22;11327;52.334;9.506;2022-09-28T23:51:36;7.70;99.90
22319;DHT22;11327;52.334;9.506;2022-09-28T23:54:57;7.60;99.90
22319;DHT22;11327;52.334;9.506;2022-09-28T23:58:18;7.60;99.90
